createdAt,value
2022-11-19T00:01:27.509Z,98620.53
2022-11-19T00:03:55.402Z,98608.44
2022-11-19T00:06:27.623Z,98609.88
2022-11-19T00:08:55.108Z,98616.72
2022-11-19T00:11:46.670Z,98632.47
2022-11-19T00:14:15.854Z,98633.63
2022-11-19T00:16:46.522Z,98639.47
2022-11-19T00:19:13.668Z,98639.47
2022-11-19T00:21:40.922Z,98631.84
2022-11-19T00:24:08.557Z,98633.28
2022-11-19T00:26:36.016Z,98627.84
2022-11-19T00:29:03.100Z,98646.47
2022-11-19T00:31:29.933Z,98646.44
2022-11-19T00:33:56.747Z,98644.06
2022-11-19T00:36:23.963Z,98639.16
2022-11-19T00:38:50.973Z,98634.16
2022-11-19T00:41:17.899Z,98636.31
2022-11-19T00:43:47.703Z,98653.75
2022-11-19T00:46:17.116Z,98645.78
2022-11-19T00:48:44.494Z,98632.03
2022-11-19T00:51:11.877Z,98622.19
2022-11-19T00:53:38.637Z,98632.16
2022-11-19T00:56:09.421Z,98645.72
2022-11-19T00:58:36.725Z,98656.53
2022-11-19T01:01:04.409Z,98658.69
2022-11-19T01:03:31.816Z,98631.97
2022-11-19T01:05:58.862Z,98652.22
2022-11-19T01:08:26.044Z,98659.97
2022-11-19T01:10:52.965Z,98656.91
2022-11-19T01:13:35.220Z,98665.75
2022-11-19T01:16:06.572Z,98665.91
2022-11-19T01:18:34.413Z,98660.28
2022-11-19T01:21:01.341Z,98641.19
2022-11-19T01:23:28.290Z,98643.69
2022-11-19T01:25:55.136Z,98648.56
2022-11-19T01:28:21.952Z,98657.38
2022-11-19T01:30:48.908Z,98657.69
2022-11-19T01:33:16.239Z,98669.44
2022-11-19T01:35:43.238Z,98672.56
2022-11-19T01:38:10.113Z,98672.81
2022-11-19T01:40:44.380Z,98676.91
2022-11-19T01:43:13.446Z,98671.09
2022-11-19T01:45:49.143Z,98693.06
2022-11-19T01:48:28.675Z,98699.19
2022-11-19T01:51:01.141Z,98694.25
2022-11-19T01:53:37.755Z,98701.44
2022-11-19T01:56:07.115Z,98711.91
2022-11-19T01:58:47.783Z,98727.47
2022-11-19T02:01:16.355Z,98733.59
2022-11-19T02:03:43.927Z,98727.09
2022-11-19T02:06:12.291Z,98736.81
2022-11-19T02:08:47.517Z,98733.44
2022-11-19T02:11:45.199Z,98727.75
2022-11-19T02:14:31.427Z,98729.13
2022-11-19T02:17:06.638Z,98734.13
2022-11-19T02:19:42.075Z,98724.03
2022-11-19T02:22:49.997Z,98727.19
2022-11-19T02:25:25.443Z,98735.00
2022-11-19T02:28:07.305Z,98744.94
2022-11-19T02:30:39.199Z,98742.38
2022-11-19T02:33:13.016Z,98751.88
2022-11-19T02:35:49.858Z,98772.41
2022-11-19T02:38:34.327Z,98766.97
2022-11-19T02:41:48.944Z,98774.94
2022-11-19T02:44:47.082Z,98785.25
2022-11-19T02:47:18.915Z,98804.34
2022-11-19T02:49:47.438Z,98797.53
2022-11-19T02:52:15.788Z,98795.09
2022-11-19T02:54:42.964Z,98781.59
2022-11-19T02:57:11.346Z,98788.19
2022-11-19T02:59:56.681Z,98794.50
2022-11-19T03:02:46.856Z,98796.03
2022-11-19T03:05:19.373Z,98802.41
2022-11-19T03:07:46.874Z,98807.88
2022-11-19T03:10:15.215Z,98808.47
2022-11-19T03:12:59.530Z,98816.44
2022-11-19T03:16:06.073Z,98825.06
2022-11-19T03:18:40.412Z,98823.41
2022-11-19T03:21:27.895Z,98823.09
2022-11-19T03:24:15.987Z,98836.13
2022-11-19T03:26:51.583Z,98827.81
2022-11-19T03:29:21.474Z,98841.63
2022-11-19T03:31:56.520Z,98835.47
2022-11-19T03:34:25.693Z,98837.78
2022-11-19T03:36:56.567Z,98841.69
2022-11-19T03:39:23.766Z,98844.34
2022-11-19T03:41:54.327Z,98850.97
2022-11-19T03:44:30.699Z,98852.13
2022-11-19T03:47:07.200Z,98851.44
2022-11-19T03:49:39.459Z,98850.06
2022-11-19T03:52:10.415Z,98854.88
2022-11-19T03:54:39.613Z,98858.13
2022-11-19T03:57:08.297Z,98855.34
2022-11-19T03:59:35.568Z,98870.47
2022-11-19T04:02:08.364Z,98880.19
2022-11-19T04:04:38.277Z,98884.53
2022-11-19T04:07:18.023Z,98891.78
2022-11-19T04:09:45.335Z,98892.53
2022-11-19T04:12:23.600Z,98897.53
2022-11-19T04:14:51.000Z,98900.19
2022-11-19T04:17:19.170Z,98907.16
2022-11-19T04:19:46.145Z,98921.53
2022-11-19T04:22:12.965Z,98918.78
2022-11-19T04:24:39.816Z,98922.41
2022-11-19T04:27:06.641Z,98917.78
2022-11-19T04:29:33.429Z,98919.22
2022-11-19T04:32:00.331Z,98918.47
2022-11-19T04:34:27.300Z,98925.84
2022-11-19T04:36:54.106Z,98938.81
2022-11-19T04:39:21.260Z,98957.53
2022-11-19T04:41:48.502Z,98966.63
2022-11-19T04:44:15.353Z,98974.78
2022-11-19T04:46:42.240Z,98976.38
2022-11-19T04:49:09.091Z,98978.31
2022-11-19T04:51:35.969Z,98979.69
2022-11-19T04:54:03.083Z,98966.34
2022-11-19T04:56:29.937Z,98972.88
2022-11-19T04:58:56.713Z,98976.97
2022-11-19T05:01:23.699Z,98981.56
2022-11-19T05:03:50.774Z,98980.47
2022-11-19T05:06:17.875Z,98985.75
2022-11-19T05:08:44.908Z,98988.84
2022-11-19T05:11:11.855Z,99002.03
2022-11-19T05:13:38.843Z,99006.09
2022-11-19T05:16:06.049Z,98999.81
2022-11-19T05:18:32.998Z,99005.63
2022-11-19T05:20:59.830Z,99015.56
2022-11-19T05:23:26.776Z,99030.81
2022-11-19T05:25:53.747Z,99041.09
2022-11-19T05:28:32.751Z,99042.66
2022-11-19T05:31:05.432Z,99041.53
2022-11-19T05:33:34.217Z,99041.47
2022-11-19T05:36:02.083Z,99048.13
2022-11-19T05:38:29.508Z,99057.25
2022-11-19T05:40:56.626Z,99070.38
2022-11-19T05:43:23.748Z,99065.69
2022-11-19T05:45:50.739Z,99061.66
2022-11-19T05:48:17.585Z,99077.13
2022-11-19T05:50:44.448Z,99073.97
2022-11-19T05:53:11.350Z,99072.81
2022-11-19T05:55:38.339Z,99077.03
2022-11-19T05:58:05.282Z,99094.22
2022-11-19T06:00:32.149Z,99104.44
2022-11-19T06:02:59.170Z,99125.84
2022-11-19T06:05:26.190Z,99121.53
2022-11-19T06:07:53.220Z,99135.59
2022-11-19T06:10:20.082Z,99138.78
2022-11-19T06:12:46.923Z,99134.53
2022-11-19T06:15:14.668Z,99143.34
2022-11-19T06:17:42.519Z,99136.03
2022-11-19T06:20:11.357Z,99145.31
2022-11-19T06:22:39.218Z,99141.56
2022-11-19T06:25:07.860Z,99150.84
2022-11-19T06:27:35.155Z,99153.69
2022-11-19T06:30:02.201Z,99151.34
2022-11-19T06:32:29.135Z,99152.84
2022-11-19T06:34:55.975Z,99159.09
2022-11-19T06:37:23.067Z,99163.28
2022-11-19T06:39:50.162Z,99170.50
2022-11-19T06:42:35.648Z,99166.50
2022-11-19T06:45:14.095Z,99162.16
2022-11-19T06:47:42.411Z,99172.63
2022-11-19T06:50:10.558Z,99174.38
2022-11-19T06:52:37.391Z,99174.25
2022-11-19T06:55:04.807Z,99174.81
2022-11-19T06:57:31.681Z,99181.88
2022-11-19T06:59:58.520Z,99186.53
2022-11-19T07:02:25.379Z,99180.66
2022-11-19T07:04:52.182Z,99193.22
2022-11-19T07:07:19.327Z,99201.72
2022-11-19T07:09:46.348Z,99212.84
2022-11-19T07:12:13.467Z,99213.78
2022-11-19T07:14:40.350Z,99223.13
2022-11-19T07:17:07.210Z,99232.84
2022-11-19T07:19:34.171Z,99232.59
2022-11-19T07:22:01.152Z,99217.72
2022-11-19T07:24:27.989Z,99230.25
2022-11-19T07:26:56.132Z,99231.34
2022-11-19T07:29:23.355Z,99236.66
2022-11-19T07:31:50.924Z,99241.97
2022-11-19T07:34:18.148Z,99247.41
2022-11-19T07:36:46.065Z,99243.72
2022-11-19T07:39:13.104Z,99234.09
2022-11-19T07:41:58.810Z,99252.75
2022-11-19T07:44:25.752Z,99262.44
2022-11-19T07:46:53.037Z,99259.78
2022-11-19T07:49:21.061Z,99272.31
2022-11-19T07:51:48.127Z,99272.63
2022-11-19T07:54:15.097Z,99275.63
2022-11-19T07:56:42.405Z,99276.47
2022-11-19T07:59:10.250Z,99285.75
2022-11-19T08:01:38.091Z,99289.94
2022-11-19T08:04:05.760Z,99289.13
2022-11-19T08:06:34.662Z,99306.72
2022-11-19T08:09:03.380Z,99320.09
2022-11-19T08:11:30.291Z,99318.84
2022-11-19T08:14:01.347Z,99325.41
2022-11-19T08:16:47.391Z,99324.75
2022-11-19T08:19:15.915Z,99323.91
2022-11-19T08:21:44.876Z,99332.56
2022-11-19T08:24:13.552Z,99327.34
2022-11-19T08:26:41.071Z,99332.06
2022-11-19T08:29:13.072Z,99337.41
2022-11-19T08:31:44.442Z,99346.63
2022-11-19T08:34:11.371Z,99354.53
2022-11-19T08:36:38.203Z,99355.94
2022-11-19T08:39:06.703Z,99354.72
2022-11-19T08:41:52.475Z,99361.41
2022-11-19T08:44:20.502Z,99364.91
2022-11-19T08:46:47.928Z,99367.13
2022-11-19T08:49:14.822Z,99371.09
2022-11-19T08:51:41.786Z,99364.69
2022-11-19T08:54:09.001Z,99366.66
2022-11-19T08:56:36.021Z,99373.13
2022-11-19T08:59:03.465Z,99372.50
2022-11-19T09:01:31.022Z,99376.94
2022-11-19T09:03:58.138Z,99376.41
2022-11-19T09:06:25.580Z,99382.44
2022-11-19T09:08:52.550Z,99377.44
2022-11-19T09:11:21.823Z,99377.09
2022-11-19T09:13:48.981Z,99373.06
2022-11-19T09:16:16.677Z,99364.91
2022-11-19T09:18:43.721Z,99352.22
2022-11-19T09:21:11.919Z,99360.19
2022-11-19T09:23:39.912Z,99370.06
2022-11-19T09:26:13.632Z,99373.00
2022-11-19T09:28:41.362Z,99375.75
2022-11-19T09:31:14.837Z,99365.84
2022-11-19T09:33:46.126Z,99363.34
2022-11-19T09:36:13.843Z,99358.06
2022-11-19T09:38:41.098Z,99354.34
2022-11-19T09:41:34.930Z,99362.09
2022-11-19T09:44:13.829Z,99366.94
2022-11-19T09:46:52.804Z,99369.44
2022-11-19T09:49:28.052Z,99362.13
2022-11-19T09:52:06.240Z,99367.91
2022-11-19T09:54:33.817Z,99370.53
2022-11-19T09:57:07.198Z,99370.38
2022-11-19T09:59:38.196Z,99365.88
2022-11-19T10:02:22.010Z,99360.56
2022-11-19T10:04:51.242Z,99348.44
2022-11-19T10:07:35.922Z,99347.66
2022-11-19T10:10:12.322Z,99345.31
2022-11-19T10:13:14.682Z,99342.84
2022-11-19T10:16:11.550Z,99348.88
2022-11-19T10:18:55.069Z,99349.56
2022-11-19T10:21:39.079Z,99346.31
2022-11-19T10:24:36.061Z,99340.94
2022-11-19T10:27:12.376Z,99336.63
2022-11-19T10:29:40.517Z,99333.00
2022-11-19T10:32:45.595Z,99331.06
2022-11-19T10:35:18.580Z,99330.63
2022-11-19T10:37:56.856Z,99342.53
2022-11-19T10:40:29.063Z,99354.19
2022-11-19T10:43:15.537Z,99358.59
2022-11-19T10:45:44.072Z,99353.81
2022-11-19T10:48:15.076Z,99356.72
2022-11-19T10:50:42.514Z,99354.38
2022-11-19T10:53:22.368Z,99363.56
2022-11-19T10:55:54.655Z,99355.75
2022-11-19T10:58:21.836Z,99375.47
2022-11-19T11:00:50.099Z,99371.66
2022-11-19T11:03:28.979Z,99376.19
2022-11-19T11:06:06.337Z,99375.03
2022-11-19T11:09:05.826Z,99362.50
2022-11-19T11:11:52.702Z,99348.28
2022-11-19T11:14:41.559Z,99353.13
2022-11-19T11:17:22.138Z,99340.81
2022-11-19T11:20:01.036Z,99334.53
2022-11-19T11:22:28.762Z,99334.81
2022-11-19T11:24:56.744Z,99335.22
2022-11-19T11:27:33.691Z,99320.13
2022-11-19T11:30:07.074Z,99326.19
2022-11-19T11:32:34.116Z,99322.13
2022-11-19T11:35:06.436Z,99332.31
2022-11-19T11:37:35.253Z,99325.84
2022-11-19T11:40:02.619Z,99337.13
2022-11-19T11:42:29.869Z,99336.66
2022-11-19T11:45:00.017Z,99313.69
2022-11-19T11:47:28.526Z,99331.13
2022-11-19T11:50:21.695Z,99344.19
2022-11-19T11:52:51.612Z,99324.53
2022-11-19T11:55:24.392Z,99331.75
2022-11-19T11:58:01.849Z,99327.72
2022-11-19T12:00:37.814Z,99334.25
2022-11-19T12:03:18.781Z,99338.31
2022-11-19T12:06:02.604Z,99337.38
2022-11-19T12:08:44.418Z,99331.50
2022-11-19T12:11:51.860Z,99326.16
2022-11-19T12:14:39.614Z,99350.97
2022-11-19T12:17:30.948Z,99341.16
2022-11-19T12:20:00.959Z,99332.00
2022-11-19T12:22:54.607Z,99329.13
2022-11-19T12:25:35.399Z,99315.97
2022-11-19T12:28:36.060Z,99314.59
2022-11-19T12:31:30.281Z,99320.38
2022-11-19T12:34:32.953Z,99323.72
2022-11-19T12:37:32.571Z,99330.84
2022-11-19T12:40:17.691Z,99336.69
2022-11-19T12:42:53.287Z,99343.72
2022-11-19T12:45:20.338Z,99344.69
2022-11-19T12:48:02.279Z,99351.16
2022-11-19T12:50:49.241Z,99360.31
2022-11-19T12:53:54.540Z,99363.16
2022-11-19T12:56:35.748Z,99361.38
2022-11-19T12:59:02.513Z,99360.69
2022-11-19T13:01:36.063Z,99360.00
2022-11-19T13:04:18.771Z,99350.53
2022-11-19T13:06:59.498Z,99354.09
2022-11-19T13:09:45.069Z,99351.75
2022-11-19T13:12:16.610Z,99343.09
2022-11-19T13:14:55.079Z,99339.44
2022-11-19T13:17:28.963Z,99354.88
2022-11-19T13:20:25.561Z,99340.88
2022-11-19T13:22:58.049Z,99341.34
2022-11-19T13:25:27.863Z,99346.41
2022-11-19T13:27:56.956Z,99348.78
2022-11-19T13:30:26.963Z,99343.94
2022-11-19T13:33:18.729Z,99345.50
2022-11-19T13:35:48.623Z,99352.50
2022-11-19T13:38:34.074Z,99353.53
2022-11-19T13:41:19.285Z,99345.66
2022-11-19T13:44:04.958Z,99347.41
2022-11-19T13:46:42.634Z,99344.94
2022-11-19T13:49:25.262Z,99340.50
2022-11-19T13:52:07.572Z,99339.94
2022-11-19T13:54:36.994Z,99348.31
2022-11-19T13:57:06.063Z,99325.13
2022-11-19T13:59:46.474Z,99334.22
2022-11-19T14:02:35.067Z,99331.28
2022-11-19T14:05:40.354Z,99343.13
2022-11-19T14:08:44.310Z,99337.28
2022-11-19T14:11:45.579Z,99332.44
2022-11-19T14:15:00.269Z,99339.91
2022-11-19T14:17:54.040Z,99351.16
2022-11-19T14:20:59.775Z,99345.25
2022-11-19T14:24:05.425Z,99343.59
2022-11-19T14:26:41.111Z,99345.50
2022-11-19T14:29:26.367Z,99348.81
2022-11-19T14:32:08.232Z,99357.09
2022-11-19T14:34:42.829Z,99355.19
2022-11-19T14:37:32.216Z,99360.44
2022-11-19T14:40:24.416Z,99344.09
2022-11-19T14:43:18.834Z,99360.63
2022-11-19T14:46:08.843Z,99363.19
2022-11-19T14:48:47.787Z,99363.34
2022-11-19T14:51:17.917Z,99358.69
2022-11-19T14:53:53.452Z,99363.56
2022-11-19T14:56:23.385Z,99364.91
2022-11-19T14:59:22.163Z,99369.13
2022-11-19T15:02:03.663Z,99367.09
2022-11-19T15:04:36.372Z,99357.78
2022-11-19T15:07:10.871Z,99361.09
2022-11-19T15:10:05.945Z,99363.44
2022-11-19T15:12:45.072Z,99379.00
2022-11-19T15:15:41.163Z,99367.63
2022-11-19T15:18:23.772Z,99380.00
2022-11-19T15:21:10.967Z,99367.13
2022-11-19T15:24:11.720Z,99375.31
2022-11-19T15:26:53.604Z,99359.59
2022-11-19T15:30:08.098Z,99359.75
2022-11-19T15:32:52.327Z,99359.06
2022-11-19T15:35:34.369Z,99360.09
2022-11-19T15:38:08.711Z,99379.13
2022-11-19T15:40:36.879Z,99391.66
2022-11-19T15:43:19.553Z,99403.38
2022-11-19T15:46:09.673Z,99406.88
2022-11-19T15:48:51.417Z,99416.25
2022-11-19T15:51:20.017Z,99408.91
2022-11-19T15:54:01.643Z,99412.09
2022-11-19T15:56:33.175Z,99402.69
2022-11-19T15:59:02.309Z,99407.22
2022-11-19T16:01:32.489Z,99405.72
2022-11-19T16:04:06.210Z,99408.06
2022-11-19T16:06:33.835Z,99417.44
2022-11-19T16:09:05.020Z,99413.41
2022-11-19T16:11:55.375Z,99421.59
2022-11-19T16:14:46.215Z,99430.78
2022-11-19T16:17:39.773Z,99435.13
2022-11-19T16:20:12.605Z,99450.16
2022-11-19T16:22:45.245Z,99435.13
2022-11-19T16:25:15.005Z,99434.97
2022-11-19T16:27:45.385Z,99432.59
2022-11-19T16:30:40.124Z,99443.97
2022-11-19T16:33:12.312Z,99435.47
2022-11-19T16:35:39.170Z,99426.75
2022-11-19T16:38:12.512Z,99430.09
2022-11-19T16:40:58.120Z,99439.28
2022-11-19T16:43:25.121Z,99444.78
2022-11-19T16:45:52.082Z,99444.97
2022-11-19T16:48:48.340Z,99443.97
2022-11-19T16:51:36.835Z,99445.44
2022-11-19T16:54:08.966Z,99445.09
2022-11-19T16:56:47.799Z,99453.25
2022-11-19T16:59:23.960Z,99461.44
2022-11-19T17:01:59.778Z,99457.88
2022-11-19T17:04:31.463Z,99466.06
2022-11-19T17:06:59.395Z,99462.91
2022-11-19T17:09:44.917Z,99463.53
2022-11-19T17:12:29.681Z,99472.22
2022-11-19T17:15:02.180Z,99473.34
2022-11-19T17:17:51.020Z,99474.03
2022-11-19T17:20:30.642Z,99480.22
2022-11-19T17:22:58.588Z,99464.34
2022-11-19T17:25:26.219Z,99458.34
2022-11-19T17:27:56.049Z,99462.50
2022-11-19T17:30:30.947Z,99478.16
2022-11-19T17:33:05.310Z,99481.97
2022-11-19T17:35:42.539Z,99477.28
2022-11-19T17:38:25.044Z,99476.28
2022-11-19T17:40:58.247Z,99476.19
2022-11-19T17:43:57.616Z,99470.25
2022-11-19T17:46:27.341Z,99460.91
2022-11-19T17:48:54.365Z,99459.88
2022-11-19T17:51:23.590Z,99454.84
2022-11-19T17:53:51.902Z,99455.72
2022-11-19T17:56:20.284Z,99466.91
2022-11-19T17:58:47.700Z,99470.03
2022-11-19T18:01:15.932Z,99466.03
2022-11-19T18:03:43.145Z,99468.88
2022-11-19T18:06:15.482Z,99470.06
2022-11-19T18:08:43.029Z,99482.88
2022-11-19T18:11:21.568Z,99482.88
2022-11-19T18:13:51.004Z,99487.25
2022-11-19T18:16:24.826Z,99492.13
2022-11-19T18:18:52.233Z,99484.25
2022-11-19T18:21:21.233Z,99470.59
2022-11-19T18:23:50.428Z,99474.41
2022-11-19T18:26:19.640Z,99467.28
2022-11-19T18:28:49.046Z,99461.41
2022-11-19T18:31:19.746Z,99466.91
2022-11-19T18:33:50.643Z,99484.47
2022-11-19T18:36:17.932Z,99482.75
2022-11-19T18:38:45.115Z,99497.59
2022-11-19T18:41:13.957Z,99495.94
2022-11-19T18:43:59.868Z,99499.91
2022-11-19T18:46:26.803Z,99503.72
2022-11-19T18:48:53.835Z,99515.25
2022-11-19T18:51:21.543Z,99523.09
2022-11-19T18:53:48.554Z,99519.78
2022-11-19T18:56:17.096Z,99529.16
2022-11-19T18:58:44.120Z,99525.88
2022-11-19T19:01:11.535Z,99528.53
2022-11-19T19:03:38.693Z,99529.56
2022-11-19T19:06:08.094Z,99532.91
2022-11-19T19:08:35.982Z,99524.59
2022-11-19T19:11:24.768Z,99521.81
2022-11-19T19:13:52.715Z,99522.41
2022-11-19T19:16:19.545Z,99517.56
2022-11-19T19:18:46.811Z,99524.09
2022-11-19T19:21:14.749Z,99515.81
2022-11-19T19:23:42.073Z,99510.31
2022-11-19T19:26:10.095Z,99521.31
2022-11-19T19:28:37.845Z,99521.66
2022-11-19T19:31:05.084Z,99514.84
2022-11-19T19:33:32.423Z,99530.34
2022-11-19T19:35:59.526Z,99529.97
2022-11-19T19:38:26.505Z,99523.75
2022-11-19T19:40:53.797Z,99549.09
2022-11-19T19:43:20.637Z,99553.97
2022-11-19T19:45:49.127Z,99553.13
2022-11-19T19:48:16.051Z,99566.16
2022-11-19T19:50:51.094Z,99568.53
2022-11-19T19:53:18.029Z,99571.66
2022-11-19T19:55:44.860Z,99557.78
2022-11-19T19:58:11.652Z,99541.34
2022-11-19T20:00:38.525Z,99540.94
2022-11-19T20:03:05.331Z,99530.50
2022-11-19T20:05:32.248Z,99521.50
2022-11-19T20:07:59.136Z,99527.34
2022-11-19T20:10:26.110Z,99525.28
2022-11-19T20:13:11.558Z,99537.44
2022-11-19T20:15:40.150Z,99528.31
2022-11-19T20:18:06.975Z,99514.66
2022-11-19T20:20:33.908Z,99508.72
2022-11-19T20:23:00.720Z,99508.38
2022-11-19T20:25:27.505Z,99513.81
2022-11-19T20:27:54.299Z,99515.31
2022-11-19T20:30:21.566Z,99510.88
2022-11-19T20:32:48.771Z,99502.19
2022-11-19T20:35:15.883Z,99503.34
2022-11-19T20:37:42.747Z,99503.38
2022-11-19T20:40:10.333Z,99498.91
2022-11-19T20:42:55.665Z,99497.53
2022-11-19T20:45:22.641Z,99491.19
2022-11-19T20:47:49.469Z,99495.31
2022-11-19T20:50:16.640Z,99491.44
2022-11-19T20:52:43.524Z,99486.25
2022-11-19T20:55:10.480Z,99500.25
2022-11-19T20:57:37.263Z,99496.34
2022-11-19T21:00:05.470Z,99491.94
2022-11-19T21:02:32.478Z,99486.78
2022-11-19T21:04:59.553Z,99490.00
2022-11-19T21:07:26.413Z,99499.03
2022-11-19T21:09:53.299Z,99509.03
2022-11-19T21:12:20.238Z,99515.28
2022-11-19T21:14:47.097Z,99512.25
2022-11-19T21:17:13.987Z,99507.50
2022-11-19T21:19:40.862Z,99507.50
2022-11-19T21:22:07.903Z,99506.84
2022-11-19T21:24:34.745Z,99506.66
2022-11-19T21:27:01.647Z,99496.41
2022-11-19T21:29:28.495Z,99486.81
2022-11-19T21:31:55.694Z,99473.25
2022-11-19T21:34:22.574Z,99483.97
2022-11-19T21:36:50.107Z,99493.22
2022-11-19T21:39:18.828Z,99478.81
2022-11-19T21:41:46.076Z,99469.06
2022-11-19T21:44:18.034Z,99475.41
2022-11-19T21:46:46.671Z,99478.06
2022-11-19T21:49:13.544Z,99477.38
2022-11-19T21:51:40.415Z,99474.41
2022-11-19T21:54:07.325Z,99479.13
2022-11-19T21:56:38.465Z,99475.63
2022-11-19T21:59:07.206Z,99472.19
2022-11-19T22:01:34.697Z,99467.53
2022-11-19T22:04:01.667Z,99450.44
2022-11-19T22:06:28.582Z,99464.78
2022-11-19T22:08:55.524Z,99460.34
2022-11-19T22:11:31.831Z,99456.56
2022-11-19T22:14:07.753Z,99463.56
2022-11-19T22:16:38.166Z,99460.41
2022-11-19T22:19:08.423Z,99456.09
2022-11-19T22:21:35.452Z,99467.03
2022-11-19T22:24:02.827Z,99464.19
2022-11-19T22:26:30.011Z,99464.19
2022-11-19T22:28:57.276Z,99448.66
2022-11-19T22:31:25.630Z,99443.31
2022-11-19T22:33:53.965Z,99443.38
2022-11-19T22:36:22.091Z,99441.66
2022-11-19T22:38:49.989Z,99431.38
2022-11-19T22:41:19.232Z,99431.25
2022-11-19T22:43:46.850Z,99429.84
2022-11-19T22:46:15.007Z,99430.34
2022-11-19T22:48:41.866Z,99415.16
2022-11-19T22:51:20.510Z,99407.16
2022-11-19T22:53:49.030Z,99420.75
2022-11-19T22:56:19.352Z,99420.47
2022-11-19T22:58:47.145Z,99417.66
2022-11-19T23:01:28.108Z,99409.53
2022-11-19T23:03:56.247Z,99403.25
2022-11-19T23:06:24.078Z,99397.50
2022-11-19T23:08:51.322Z,99414.25
2022-11-19T23:11:38.765Z,99431.53
2022-11-19T23:14:07.894Z,99404.09
2022-11-19T23:16:35.463Z,99410.50
2022-11-19T23:19:02.427Z,99406.91
2022-11-19T23:21:29.833Z,99391.66
2022-11-19T23:23:58.434Z,99387.47
2022-11-19T23:26:27.488Z,99388.63
2022-11-19T23:28:55.099Z,99389.34
2022-11-19T23:31:27.255Z,99375.25
2022-11-19T23:33:59.105Z,99389.56
2022-11-19T23:36:34.611Z,99383.94
2022-11-19T23:39:02.610Z,99394.72
2022-11-19T23:41:32.156Z,99396.66
2022-11-19T23:43:59.402Z,99393.84
2022-11-19T23:46:29.267Z,99406.88
2022-11-19T23:48:57.647Z,99399.81
2022-11-19T23:51:30.241Z,99407.53
2022-11-19T23:53:57.848Z,99418.44
2022-11-19T23:56:25.954Z,99406.63
2022-11-19T23:58:53.407Z,99410.09
